createdAt,value
2019-01-31T00:00:44.196Z,67.60
2019-01-31T00:04:06.547Z,67.90
2019-01-31T00:07:03.595Z,67.80
2019-01-31T00:10:14.364Z,67.70
2019-01-31T00:13:14.790Z,67.40
2019-01-31T00:16:07.065Z,67.10
2019-01-31T00:19:00.877Z,67.20
2019-01-31T00:21:52.088Z,67.00
2019-01-31T00:24:48.763Z,67.10
2019-01-31T00:28:00.911Z,66.90
2019-01-31T00:31:06.641Z,65.90
2019-01-31T00:34:11.784Z,65.40
2019-01-31T00:37:09.601Z,65.10
2019-01-31T00:40:14.348Z,64.60
2019-01-31T00:43:03.717Z,64.60
2019-01-31T00:46:08.525Z,65.40
2019-01-31T00:49:04.788Z,65.90
2019-01-31T00:51:56.921Z,66.10
2019-01-31T00:55:05.438Z,66.20
2019-01-31T00:58:01.941Z,66.80
2019-01-31T01:00:42.756Z,67.50
2019-01-31T01:03:54.179Z,68.30
2019-01-31T01:06:38.568Z,69.30
2019-01-31T01:09:19.053Z,69.60
2019-01-31T01:12:35.893Z,70.40
2019-01-31T01:15:38.077Z,71.10
2019-01-31T01:18:45.548Z,73.10
2019-01-31T01:22:19.909Z,74.00
2019-01-31T01:25:27.110Z,75.00
2019-01-31T01:28:33.493Z,76.60
2019-01-31T01:31:36.807Z,77.80
2019-01-31T01:34:36.127Z,78.50
2019-01-31T01:37:39.941Z,77.80
2019-01-31T01:40:47.955Z,77.40
2019-01-31T01:44:04.283Z,76.90
2019-01-31T01:47:32.899Z,76.90
2019-01-31T01:50:08.248Z,77.00
2019-01-31T01:53:18.784Z,76.90
2019-01-31T01:56:25.180Z,77.00
2019-01-31T01:59:28.603Z,76.90
2019-01-31T02:02:43.731Z,77.00
2019-01-31T02:05:38.687Z,76.90
2019-01-31T02:08:44.983Z,76.00
2019-01-31T02:11:57.308Z,76.60
2019-01-31T02:15:09.350Z,75.90
2019-01-31T02:18:03.525Z,75.40
2019-01-31T02:21:12.801Z,74.40
2019-01-31T02:24:08.227Z,73.60
2019-01-31T02:27:07.616Z,72.30
2019-01-31T02:30:03.248Z,71.50
2019-01-31T02:32:52.826Z,71.00
2019-01-31T02:35:41.283Z,70.30
2019-01-31T02:38:28.891Z,69.20
2019-01-31T02:41:23.625Z,68.90
2019-01-31T02:44:08.093Z,68.10
2019-01-31T02:47:39.566Z,67.50
2019-01-31T02:50:26.360Z,66.50
2019-01-31T02:53:52.102Z,64.50
2019-01-31T02:57:17.501Z,64.50
2019-01-31T03:00:35.811Z,64.80
2019-01-31T03:03:34.483Z,65.00
2019-01-31T03:06:50.418Z,64.80
2019-01-31T03:10:03.953Z,64.50
2019-01-31T03:12:51.800Z,65.70
2019-01-31T03:15:56.460Z,65.10
2019-01-31T03:19:18.783Z,65.30
2019-01-31T03:22:28.758Z,65.00
2019-01-31T03:25:40.200Z,64.90
2019-01-31T03:28:39.057Z,64.90
2019-01-31T03:31:42.917Z,64.40
2019-01-31T03:34:41.875Z,64.60
2019-01-31T03:37:30.075Z,64.60
2019-01-31T03:40:45.649Z,64.40
2019-01-31T03:43:46.565Z,64.20
2019-01-31T03:46:51.798Z,63.80
2019-01-31T03:49:55.387Z,63.50
2019-01-31T03:53:13.392Z,63.20
2019-01-31T03:56:30.660Z,63.40
2019-01-31T03:59:12.089Z,63.10
2019-01-31T04:02:27.739Z,62.80
2019-01-31T04:05:24.840Z,62.30
2019-01-31T04:07:54.920Z,62.20
2019-01-31T04:10:24.524Z,62.50
2019-01-31T04:12:54.138Z,62.40
2019-01-31T04:15:24.038Z,62.40
2019-01-31T04:17:53.603Z,62.50
2019-01-31T04:20:23.516Z,62.10
2019-01-31T04:22:53.280Z,62.00
2019-01-31T04:25:23.000Z,62.10
2019-01-31T04:27:52.556Z,61.50
2019-01-31T04:30:22.606Z,62.00
2019-01-31T04:32:52.491Z,62.20
2019-01-31T04:35:22.360Z,62.20
2019-01-31T04:37:51.989Z,61.30
2019-01-31T04:40:30.843Z,61.40
2019-01-31T04:42:53.535Z,61.50
2019-01-31T04:45:23.161Z,61.30
2019-01-31T04:47:52.708Z,61.70
2019-01-31T04:50:22.549Z,61.90
2019-01-31T04:52:52.181Z,61.70
2019-01-31T04:55:22.013Z,61.60
2019-01-31T04:57:51.618Z,61.00
2019-01-31T05:00:21.481Z,61.40
2019-01-31T05:02:51.058Z,61.00
2019-01-31T05:05:20.643Z,60.90
2019-01-31T05:07:50.182Z,60.60
2019-01-31T05:10:20.010Z,60.50
2019-01-31T05:12:49.827Z,60.50
2019-01-31T05:15:19.396Z,60.40
2019-01-31T05:17:49.258Z,60.80
2019-01-31T05:20:19.339Z,60.40
2019-01-31T05:22:49.176Z,60.40
2019-01-31T05:25:19.053Z,60.50
2019-01-31T05:27:48.907Z,60.40
2019-01-31T05:30:18.574Z,60.70
2019-01-31T05:32:48.662Z,60.60
2019-01-31T05:35:18.213Z,60.80
2019-01-31T05:37:47.822Z,60.80
2019-01-31T05:40:17.712Z,61.00
2019-01-31T05:42:47.327Z,61.00
2019-01-31T05:45:17.663Z,61.20
2019-01-31T05:47:47.485Z,61.30
2019-01-31T05:50:18.672Z,60.90
2019-01-31T05:52:48.534Z,60.80
2019-01-31T05:55:18.586Z,60.60
2019-01-31T05:57:48.424Z,60.40
2019-01-31T06:00:23.876Z,60.80
2019-01-31T06:02:53.696Z,60.90
2019-01-31T06:05:24.232Z,60.90
2019-01-31T06:07:54.029Z,59.90
2019-01-31T06:10:23.920Z,60.90
2019-01-31T06:12:54.665Z,60.80
2019-01-31T06:15:24.213Z,61.20
2019-01-31T06:17:54.057Z,61.50
2019-01-31T06:20:25.419Z,61.70
2019-01-31T06:22:54.991Z,61.90
2019-01-31T06:25:24.581Z,61.70
2019-01-31T06:27:54.145Z,61.90
2019-01-31T06:30:23.742Z,61.70
2019-01-31T06:32:53.636Z,62.30
2019-01-31T06:35:23.488Z,62.10
2019-01-31T06:37:53.103Z,61.80
2019-01-31T06:40:22.729Z,61.80
2019-01-31T06:42:52.615Z,61.70
2019-01-31T06:45:22.888Z,61.60
2019-01-31T06:47:53.031Z,61.90
2019-01-31T06:50:22.584Z,61.90
2019-01-31T06:52:52.490Z,61.90
2019-01-31T06:55:22.326Z,61.80
2019-01-31T06:57:51.927Z,61.60
2019-01-31T07:00:23.114Z,61.70
2019-01-31T07:02:52.780Z,61.60
2019-01-31T07:05:22.389Z,62.20
2019-01-31T07:07:51.943Z,62.70
2019-01-31T07:10:24.295Z,63.00
2019-01-31T07:12:54.215Z,62.90
2019-01-31T07:15:24.200Z,62.70
2019-01-31T07:17:53.793Z,62.50
2019-01-31T07:20:23.374Z,62.40
2019-01-31T07:22:53.006Z,62.30
2019-01-31T07:25:24.469Z,61.90
2019-01-31T07:27:54.054Z,62.20
2019-01-31T07:30:26.723Z,61.70
2019-01-31T07:32:55.196Z,61.60
2019-01-31T07:35:25.139Z,61.30
2019-01-31T07:37:54.755Z,61.10
2019-01-31T07:40:24.652Z,60.80
2019-01-31T07:42:54.463Z,61.10
2019-01-31T07:45:26.803Z,60.80
2019-01-31T07:47:56.342Z,60.80
2019-01-31T07:50:26.162Z,60.20
2019-01-31T07:52:56.254Z,60.20
2019-01-31T07:55:25.862Z,59.80
2019-01-31T07:57:55.779Z,59.80
2019-01-31T08:00:25.513Z,59.90
2019-01-31T08:02:55.172Z,59.00
2019-01-31T08:05:25.227Z,59.20
2019-01-31T08:07:55.958Z,58.50
2019-01-31T08:10:28.529Z,58.30
2019-01-31T08:12:58.903Z,58.70
2019-01-31T08:15:28.992Z,57.00
2019-01-31T08:17:58.882Z,56.50
2019-01-31T08:20:28.480Z,56.30
2019-01-31T08:23:00.183Z,55.90
2019-01-31T08:25:29.759Z,56.10
2019-01-31T08:27:59.874Z,54.30
2019-01-31T08:30:31.872Z,54.80
2019-01-31T08:33:01.768Z,51.50
2019-01-31T08:35:31.331Z,51.30
2019-01-31T08:38:00.947Z,50.90
2019-01-31T08:40:30.838Z,50.30
2019-01-31T08:43:00.628Z,49.80
2019-01-31T08:45:30.748Z,48.70
2019-01-31T08:48:00.330Z,48.70
2019-01-31T08:50:30.186Z,48.20
2019-01-31T08:52:59.810Z,48.20
2019-01-31T08:55:29.922Z,47.90
2019-01-31T08:57:59.499Z,47.60
2019-01-31T09:00:30.265Z,46.50
2019-01-31T09:03:00.170Z,47.40
2019-01-31T09:05:30.244Z,47.20
2019-01-31T09:08:00.082Z,46.90
2019-01-31T09:10:31.944Z,46.40
2019-01-31T09:13:03.267Z,44.50
2019-01-31T09:15:33.165Z,44.50
2019-01-31T09:18:02.776Z,44.60
2019-01-31T09:20:36.838Z,44.20
2019-01-31T09:23:59.311Z,44.30
2019-01-31T09:27:01.221Z,43.40
2019-01-31T09:29:43.346Z,44.10
2019-01-31T09:32:52.841Z,45.60
2019-01-31T09:35:50.632Z,45.70
2019-01-31T09:38:45.763Z,46.40
2019-01-31T09:42:02.597Z,47.10
2019-01-31T09:45:37.415Z,47.10
2019-01-31T09:49:05.320Z,47.50
2019-01-31T09:52:06.819Z,47.20
2019-01-31T09:54:50.161Z,47.10
2019-01-31T09:57:58.499Z,47.30
2019-01-31T10:00:57.332Z,48.00
2019-01-31T10:04:07.663Z,49.20
2019-01-31T10:07:03.231Z,49.60
2019-01-31T10:10:02.210Z,50.50
2019-01-31T10:13:11.375Z,49.50
2019-01-31T10:16:36.836Z,48.60
2019-01-31T10:19:23.772Z,48.20
2019-01-31T10:22:40.117Z,47.00
2019-01-31T10:25:45.067Z,47.50
2019-01-31T10:28:49.047Z,47.30
2019-01-31T10:31:50.207Z,48.40
2019-01-31T10:35:06.614Z,49.10
2019-01-31T10:38:09.943Z,49.60
2019-01-31T10:41:06.779Z,49.20
2019-01-31T10:44:30.025Z,49.20
2019-01-31T10:47:49.871Z,48.90
2019-01-31T10:51:03.611Z,48.90
2019-01-31T10:54:16.135Z,47.90
2019-01-31T10:56:58.344Z,46.80
2019-01-31T11:00:00.543Z,44.70
2019-01-31T11:02:57.207Z,43.90
2019-01-31T11:06:07.927Z,43.30
2019-01-31T11:09:13.875Z,42.90
2019-01-31T11:12:27.611Z,41.00
2019-01-31T11:15:13.058Z,39.40
2019-01-31T11:18:09.177Z,38.40
2019-01-31T11:21:27.608Z,37.50
2019-01-31T11:24:47.232Z,37.50
2019-01-31T11:27:49.770Z,36.80
2019-01-31T11:31:00.212Z,38.00
2019-01-31T11:34:01.703Z,38.90
2019-01-31T11:37:04.838Z,38.40
2019-01-31T11:39:59.598Z,38.20
2019-01-31T11:42:54.438Z,38.00
2019-01-31T11:45:54.680Z,37.70
2019-01-31T11:48:41.798Z,36.20
2019-01-31T11:51:54.412Z,35.10
2019-01-31T11:54:58.887Z,34.20
2019-01-31T11:57:59.968Z,32.00
2019-01-31T12:00:29.899Z,32.10
2019-01-31T12:02:59.569Z,31.60
2019-01-31T12:05:29.416Z,31.40
2019-01-31T12:07:59.102Z,31.20
2019-01-31T12:10:28.962Z,31.20
2019-01-31T12:12:58.675Z,30.70
2019-01-31T12:15:28.540Z,29.90
2019-01-31T12:17:58.149Z,29.90
2019-01-31T12:20:27.986Z,28.90
2019-01-31T12:22:57.578Z,27.50
2019-01-31T12:25:27.402Z,28.10
2019-01-31T12:27:57.267Z,27.80
2019-01-31T12:30:28.140Z,26.90
2019-01-31T12:32:58.294Z,27.00
2019-01-31T12:35:27.880Z,26.00
2019-01-31T12:37:57.701Z,25.80
2019-01-31T12:40:27.508Z,26.50
2019-01-31T12:42:57.340Z,26.70
2019-01-31T12:45:27.215Z,25.70
2019-01-31T12:47:57.171Z,25.40
2019-01-31T12:50:28.914Z,25.20
2019-01-31T12:52:58.449Z,25.00
2019-01-31T12:55:28.362Z,24.80
2019-01-31T12:57:57.893Z,24.60
2019-01-31T13:00:29.415Z,23.70
2019-01-31T13:02:59.654Z,23.50
2019-01-31T13:05:29.191Z,23.20
2019-01-31T13:07:59.332Z,22.10
2019-01-31T13:10:29.198Z,21.50
2019-01-31T13:12:59.046Z,21.90
2019-01-31T13:15:29.442Z,22.00
2019-01-31T13:17:59.808Z,22.00
2019-01-31T13:20:29.407Z,22.10
2019-01-31T13:22:59.493Z,21.20
2019-01-31T13:25:29.703Z,21.90
2019-01-31T13:27:59.602Z,20.80
2019-01-31T13:30:29.561Z,21.10
2019-01-31T13:32:59.165Z,22.00
2019-01-31T13:35:28.994Z,22.60
2019-01-31T13:37:59.061Z,22.50
2019-01-31T13:40:28.648Z,22.60
2019-01-31T13:42:58.827Z,22.80
2019-01-31T13:45:33.339Z,22.80
2019-01-31T13:48:05.789Z,23.10
2019-01-31T13:50:35.555Z,23.20
2019-01-31T13:53:07.423Z,23.90
2019-01-31T13:55:37.140Z,23.80
2019-01-31T13:58:10.116Z,23.80
2019-01-31T14:00:38.595Z,23.40
2019-01-31T14:03:08.522Z,23.40
2019-01-31T14:05:38.407Z,22.60
2019-01-31T14:08:08.658Z,23.20
2019-01-31T14:10:38.188Z,23.80
2019-01-31T14:13:07.772Z,24.90
2019-01-31T14:15:38.120Z,25.50
2019-01-31T14:18:07.702Z,25.20
2019-01-31T14:20:37.359Z,26.10
2019-01-31T14:23:07.099Z,26.60
2019-01-31T14:25:36.968Z,26.30
2019-01-31T14:28:06.660Z,26.00
2019-01-31T14:30:40.015Z,25.30
2019-01-31T14:33:36.135Z,25.60
2019-01-31T14:36:06.059Z,25.70
2019-01-31T14:38:35.674Z,25.90
2019-01-31T14:41:05.664Z,25.10
2019-01-31T14:43:35.780Z,25.60
2019-01-31T14:46:05.839Z,25.70
2019-01-31T14:48:35.416Z,25.70
2019-01-31T14:51:05.382Z,25.00
2019-01-31T14:53:34.964Z,25.20
2019-01-31T14:56:04.910Z,25.60
2019-01-31T14:58:34.473Z,25.50
2019-01-31T15:01:04.647Z,25.10
2019-01-31T15:03:34.199Z,26.00
2019-01-31T15:06:04.017Z,26.40
2019-01-31T15:08:34.110Z,25.60
2019-01-31T15:11:03.677Z,25.40
2019-01-31T15:13:33.792Z,25.00
2019-01-31T15:16:03.716Z,24.60
2019-01-31T15:18:33.275Z,23.30
2019-01-31T15:21:03.143Z,24.00
2019-01-31T15:23:32.707Z,23.70
2019-01-31T15:26:02.291Z,24.10
2019-01-31T15:28:31.872Z,24.20
2019-01-31T15:31:01.395Z,24.40
2019-01-31T15:33:31.020Z,24.40
2019-01-31T15:36:00.660Z,24.30
2019-01-31T15:38:30.259Z,24.60
2019-01-31T15:41:00.352Z,24.10
2019-01-31T15:43:30.152Z,25.20
2019-01-31T15:46:00.078Z,25.50
2019-01-31T15:48:29.624Z,26.40
2019-01-31T15:50:59.220Z,28.00
2019-01-31T15:53:29.326Z,29.50
2019-01-31T15:55:58.917Z,30.00
2019-01-31T15:58:28.565Z,29.70
2019-01-31T16:00:58.634Z,28.00
2019-01-31T16:03:28.713Z,28.20
2019-01-31T16:05:58.362Z,28.50
2019-01-31T16:08:27.957Z,28.40
2019-01-31T16:10:57.755Z,28.60
2019-01-31T16:13:27.614Z,28.90
2019-01-31T16:15:57.555Z,29.30
2019-01-31T16:18:27.387Z,29.60
2019-01-31T16:20:57.019Z,29.80
2019-01-31T16:23:26.862Z,30.20
2019-01-31T16:25:56.451Z,30.30
2019-01-31T16:28:26.275Z,30.00
2019-01-31T16:30:56.149Z,30.30
2019-01-31T16:33:25.963Z,30.60
2019-01-31T16:35:55.540Z,30.40
2019-01-31T16:38:25.361Z,30.60
2019-01-31T16:40:54.943Z,31.20
2019-01-31T16:43:24.538Z,32.20
2019-01-31T16:45:55.046Z,32.00
2019-01-31T16:48:25.207Z,32.40
2019-01-31T16:50:55.012Z,32.80
2019-01-31T16:53:24.905Z,32.80
2019-01-31T16:55:55.272Z,32.80
2019-01-31T16:58:25.135Z,32.90
2019-01-31T17:00:55.120Z,31.50
2019-01-31T17:03:24.960Z,32.90
2019-01-31T17:05:54.598Z,32.70
2019-01-31T17:08:24.505Z,32.40
2019-01-31T17:10:54.631Z,33.10
2019-01-31T17:13:24.273Z,33.30
2019-01-31T17:15:53.877Z,33.00
2019-01-31T17:18:23.830Z,33.50
2019-01-31T17:20:53.958Z,33.80
2019-01-31T17:23:24.093Z,34.00
2019-01-31T17:25:53.702Z,33.30
2019-01-31T17:28:23.277Z,33.80
2019-01-31T17:30:52.906Z,33.90
2019-01-31T17:33:22.554Z,34.40
2019-01-31T17:35:52.146Z,34.40
2019-01-31T17:38:21.998Z,34.50
2019-01-31T17:40:51.558Z,34.70
2019-01-31T17:43:21.161Z,35.20
2019-01-31T17:45:50.824Z,35.30
2019-01-31T17:48:20.394Z,35.40
2019-01-31T17:50:50.499Z,36.10
2019-01-31T17:53:20.340Z,36.10
2019-01-31T17:55:49.984Z,35.40
2019-01-31T17:58:19.611Z,36.90
2019-01-31T18:00:54.996Z,36.60
2019-01-31T18:03:25.063Z,37.30
2019-01-31T18:05:54.623Z,37.80
2019-01-31T18:08:24.443Z,37.00
2019-01-31T18:10:54.574Z,37.80
2019-01-31T18:13:24.941Z,37.30
2019-01-31T18:15:54.825Z,37.60
2019-01-31T18:18:24.496Z,37.50
2019-01-31T18:20:54.124Z,37.90
2019-01-31T18:23:23.696Z,38.40
2019-01-31T18:25:53.543Z,38.50
2019-01-31T18:28:23.908Z,39.00
2019-01-31T18:30:54.087Z,38.60
2019-01-31T18:33:23.720Z,38.50
2019-01-31T18:35:53.577Z,39.20
2019-01-31T18:38:23.403Z,40.00
2019-01-31T18:40:52.988Z,40.30
2019-01-31T18:43:22.609Z,40.60
2019-01-31T18:45:53.686Z,40.70
2019-01-31T18:48:23.363Z,41.10
2019-01-31T18:50:52.900Z,40.90
2019-01-31T18:53:22.488Z,41.30
2019-01-31T18:55:52.275Z,42.00
2019-01-31T18:58:22.196Z,42.80
2019-01-31T19:00:52.683Z,43.50
2019-01-31T19:03:22.310Z,44.00
2019-01-31T19:05:52.177Z,43.00
2019-01-31T19:08:21.740Z,43.60
2019-01-31T19:10:51.344Z,45.00
2019-01-31T19:13:20.906Z,45.60
2019-01-31T19:15:50.472Z,45.70
2019-01-31T19:18:20.075Z,45.90
2019-01-31T19:20:50.044Z,46.20
2019-01-31T19:23:19.740Z,46.60
2019-01-31T19:25:49.335Z,46.50
2019-01-31T19:28:18.870Z,45.70
2019-01-31T19:30:48.672Z,45.90
2019-01-31T19:33:18.284Z,45.50
2019-01-31T19:35:48.165Z,45.40
2019-01-31T19:38:17.699Z,45.90
2019-01-31T19:40:47.597Z,45.80
2019-01-31T19:43:17.382Z,45.80
2019-01-31T19:45:49.355Z,44.10
2019-01-31T19:48:19.059Z,44.70
2019-01-31T19:50:48.593Z,44.30
2019-01-31T19:53:18.198Z,44.20
2019-01-31T19:55:48.281Z,43.40
2019-01-31T19:58:17.879Z,44.20
2019-01-31T20:00:47.781Z,44.30
2019-01-31T20:03:17.368Z,44.00
2019-01-31T20:05:46.915Z,44.10
2019-01-31T20:08:16.747Z,43.10
2019-01-31T20:10:46.429Z,42.80
2019-01-31T20:13:16.284Z,42.70
2019-01-31T20:15:45.899Z,42.60
2019-01-31T20:18:15.444Z,42.50
2019-01-31T20:20:45.056Z,42.70
2019-01-31T20:23:14.647Z,42.60
2019-01-31T20:25:44.311Z,42.40
2019-01-31T20:28:13.947Z,42.80
2019-01-31T20:30:43.793Z,42.30
2019-01-31T20:33:13.425Z,41.50
2019-01-31T20:35:43.048Z,41.80
2019-01-31T20:38:12.966Z,41.70
2019-01-31T20:40:43.486Z,41.90
2019-01-31T20:43:13.052Z,41.50
2019-01-31T20:45:42.711Z,41.70
2019-01-31T20:48:12.536Z,41.00
2019-01-31T20:50:42.786Z,40.90
2019-01-31T20:53:12.427Z,40.50
2019-01-31T20:55:42.463Z,40.70
2019-01-31T20:58:12.279Z,40.80
2019-01-31T21:00:44.555Z,41.10
2019-01-31T21:03:14.718Z,40.90
2019-01-31T21:05:44.600Z,41.00
2019-01-31T21:08:15.239Z,40.80
2019-01-31T21:10:46.415Z,41.70
2019-01-31T21:13:15.941Z,40.70
2019-01-31T21:15:45.573Z,40.70
2019-01-31T21:18:15.438Z,42.70
2019-01-31T21:20:45.317Z,43.20
2019-01-31T21:23:15.171Z,43.90
2019-01-31T21:25:45.084Z,45.30
2019-01-31T21:28:14.706Z,45.40
2019-01-31T21:30:44.310Z,46.00
2019-01-31T21:33:13.909Z,45.50
2019-01-31T21:35:43.790Z,46.70
2019-01-31T21:38:13.660Z,47.70
2019-01-31T21:40:43.356Z,47.80
2019-01-31T21:43:13.167Z,48.10
2019-01-31T21:45:42.799Z,49.10
2019-01-31T21:48:12.567Z,49.00
2019-01-31T21:50:42.483Z,48.40
2019-01-31T21:53:12.291Z,48.10
2019-01-31T21:55:42.192Z,48.40
2019-01-31T21:58:11.753Z,48.60
2019-01-31T22:00:41.323Z,48.20
2019-01-31T22:03:11.256Z,47.30
2019-01-31T22:05:41.167Z,46.90
2019-01-31T22:08:10.775Z,48.20
2019-01-31T22:10:40.348Z,48.10
2019-01-31T22:13:09.959Z,47.90
2019-01-31T22:15:39.527Z,47.60
2019-01-31T22:18:09.177Z,47.60
2019-01-31T22:20:39.058Z,47.60
2019-01-31T22:23:08.627Z,47.50
2019-01-31T22:25:38.461Z,47.20
2019-01-31T22:28:08.290Z,47.40
2019-01-31T22:30:38.752Z,48.30
2019-01-31T22:33:11.439Z,49.20
2019-01-31T22:35:41.584Z,49.00
2019-01-31T22:38:11.175Z,49.00
2019-01-31T22:40:41.006Z,47.90
2019-01-31T22:43:10.869Z,49.50
2019-01-31T22:45:40.477Z,49.80
2019-01-31T22:48:10.096Z,49.70
2019-01-31T22:50:40.202Z,50.30
2019-01-31T22:53:10.427Z,50.60
2019-01-31T22:55:40.265Z,50.80
2019-01-31T22:58:09.867Z,50.90
2019-01-31T23:00:50.904Z,50.70
2019-01-31T23:03:20.767Z,50.40
2019-01-31T23:05:50.400Z,49.10
2019-01-31T23:08:19.965Z,49.90
2019-01-31T23:10:49.829Z,50.00
2019-01-31T23:13:19.754Z,50.00
2019-01-31T23:15:49.378Z,49.40
2019-01-31T23:18:18.971Z,49.10
2019-01-31T23:20:48.895Z,49.50
2019-01-31T23:23:18.732Z,48.80
2019-01-31T23:25:48.630Z,48.70
2019-01-31T23:28:18.330Z,47.50
2019-01-31T23:30:47.898Z,48.20
2019-01-31T23:33:17.478Z,47.90
2019-01-31T23:35:47.028Z,48.10
2019-01-31T23:38:16.870Z,47.70
2019-01-31T23:40:46.423Z,47.50
2019-01-31T23:43:16.016Z,47.50
2019-01-31T23:45:45.641Z,47.70
2019-01-31T23:48:15.187Z,47.70
2019-01-31T23:50:45.028Z,47.70
2019-01-31T23:53:14.654Z,47.60
2019-01-31T23:55:44.251Z,47.10
2019-01-31T23:58:13.831Z,46.70
